createdAt,value
2023-03-04T00:00:06.422Z,20.28
2023-03-04T00:02:55.385Z,20.27
2023-03-04T00:05:40.834Z,20.27
2023-03-04T00:08:26.186Z,20.27
2023-03-04T00:11:11.401Z,20.27
2023-03-04T00:13:58.534Z,20.28
2023-03-04T00:16:44.104Z,20.29
2023-03-04T00:19:29.254Z,20.29
2023-03-04T00:22:14.643Z,20.30
2023-03-04T00:24:59.919Z,20.28
2023-03-04T00:27:45.367Z,20.28
2023-03-04T00:30:31.699Z,20.29
2023-03-04T00:33:17.088Z,20.28
2023-03-04T00:36:02.865Z,20.27
2023-03-04T00:38:48.410Z,20.25
2023-03-04T00:41:33.818Z,20.24
2023-03-04T00:44:19.418Z,20.23
2023-03-04T00:47:04.724Z,20.23
2023-03-04T00:49:49.994Z,20.21
2023-03-04T00:52:35.330Z,20.21
2023-03-04T00:55:20.693Z,20.21
2023-03-04T00:58:05.927Z,20.20
2023-03-04T01:00:51.182Z,20.19
2023-03-04T01:03:36.899Z,20.18
2023-03-04T01:06:23.259Z,20.20
2023-03-04T01:09:08.786Z,20.22
2023-03-04T01:11:54.572Z,20.22
2023-03-04T01:14:39.961Z,20.23
2023-03-04T01:17:25.495Z,20.23
2023-03-04T01:20:11.745Z,20.23
2023-03-04T01:22:57.132Z,20.23
2023-03-04T01:25:42.353Z,20.23
2023-03-04T01:28:27.710Z,20.23
2023-03-04T01:31:12.917Z,20.24
2023-03-04T01:33:58.254Z,20.25
2023-03-04T01:36:43.566Z,20.24
2023-03-04T01:39:30.441Z,20.25
2023-03-04T01:42:20.726Z,20.25
2023-03-04T01:45:07.486Z,20.27
2023-03-04T01:47:53.154Z,20.24
2023-03-04T01:50:38.984Z,20.25
2023-03-04T01:53:27.045Z,20.26
2023-03-04T01:56:15.931Z,20.25
2023-03-04T01:59:07.631Z,20.23
2023-03-04T02:01:55.916Z,20.23
2023-03-04T02:04:42.774Z,20.21
2023-03-04T02:07:28.243Z,20.20
2023-03-04T02:10:13.628Z,20.19
2023-03-04T02:13:01.139Z,20.19
2023-03-04T02:15:47.266Z,20.20
2023-03-04T02:18:33.060Z,20.19
2023-03-04T02:21:26.155Z,20.17
2023-03-04T02:24:35.154Z,20.16
2023-03-04T02:27:22.118Z,20.15
2023-03-04T02:30:11.251Z,20.14
2023-03-04T02:32:56.898Z,20.18
2023-03-04T02:35:42.174Z,20.19
2023-03-04T02:38:27.446Z,20.20
2023-03-04T02:41:19.605Z,20.20
2023-03-04T02:44:35.741Z,20.19
2023-03-04T02:47:21.210Z,20.19
2023-03-04T02:50:09.036Z,20.19
2023-03-04T02:52:54.321Z,20.21
2023-03-04T02:55:40.049Z,20.22
2023-03-04T02:58:25.485Z,20.24
2023-03-04T03:01:10.844Z,20.22
2023-03-04T03:03:56.023Z,20.24
2023-03-04T03:06:41.318Z,20.24
2023-03-04T03:09:27.331Z,20.25
2023-03-04T03:12:14.608Z,20.22
2023-03-04T03:15:00.547Z,20.23
2023-03-04T03:17:46.364Z,20.23
2023-03-04T03:20:33.146Z,20.23
2023-03-04T03:23:18.582Z,20.21
2023-03-04T03:26:03.935Z,20.19
2023-03-04T03:28:50.325Z,20.19
2023-03-04T03:31:36.216Z,20.17
2023-03-04T03:34:21.466Z,20.17
2023-03-04T03:37:07.825Z,20.16
2023-03-04T03:39:53.022Z,20.15
2023-03-04T03:42:38.382Z,20.17
2023-03-04T03:45:23.763Z,20.14
2023-03-04T03:48:09.021Z,20.14
2023-03-04T03:50:54.326Z,20.12
2023-03-04T03:53:39.791Z,20.15
2023-03-04T03:56:25.077Z,20.17
2023-03-04T03:59:10.501Z,20.18
2023-03-04T04:01:55.785Z,20.18
2023-03-04T04:04:41.062Z,20.19
2023-03-04T04:07:26.313Z,20.17
2023-03-04T04:10:12.398Z,20.18
2023-03-04T04:12:57.975Z,20.18
2023-03-04T04:15:43.302Z,20.19
2023-03-04T04:18:28.864Z,20.20
2023-03-04T04:21:15.031Z,20.21
2023-03-04T04:24:00.773Z,20.20
2023-03-04T04:26:46.478Z,20.21
2023-03-04T04:29:31.787Z,20.20
2023-03-04T04:32:17.699Z,20.18
2023-03-04T04:35:03.295Z,20.19
2023-03-04T04:37:48.617Z,20.20
2023-03-04T04:40:34.132Z,20.20
2023-03-04T04:43:19.300Z,20.19
2023-03-04T04:46:04.802Z,20.17
2023-03-04T04:48:50.335Z,20.15
2023-03-04T04:51:37.244Z,20.17
2023-03-04T04:54:22.863Z,20.15
2023-03-04T04:57:08.072Z,20.13
2023-03-04T04:59:53.443Z,20.14
2023-03-04T05:02:38.720Z,20.13
2023-03-04T05:05:23.983Z,20.13
2023-03-04T05:08:09.395Z,20.11
2023-03-04T05:10:54.791Z,20.13
2023-03-04T05:13:40.223Z,20.15
2023-03-04T05:16:25.498Z,20.15
2023-03-04T05:19:11.380Z,20.19
2023-03-04T05:21:57.000Z,20.21
2023-03-04T05:24:42.493Z,20.20
2023-03-04T05:27:27.954Z,20.17
2023-03-04T05:30:13.535Z,20.17
2023-03-04T05:33:02.352Z,20.17
2023-03-04T05:35:49.334Z,20.18
2023-03-04T05:38:36.351Z,20.20
2023-03-04T05:41:22.755Z,20.21
2023-03-04T05:44:08.197Z,20.21
2023-03-04T05:46:55.027Z,20.22
2023-03-04T05:49:42.005Z,20.25
2023-03-04T05:52:27.259Z,20.26
2023-03-04T05:55:13.002Z,20.25
2023-03-04T05:57:59.032Z,20.28
2023-03-04T06:00:44.724Z,20.28
2023-03-04T06:03:40.771Z,20.28
2023-03-04T06:06:26.569Z,20.25
2023-03-04T06:09:12.362Z,20.21
2023-03-04T06:11:57.640Z,20.18
2023-03-04T06:14:42.990Z,20.17
2023-03-04T06:17:29.654Z,20.14
2023-03-04T06:20:15.103Z,20.21
2023-03-04T06:23:00.456Z,20.18
2023-03-04T06:25:45.746Z,20.19
2023-03-04T06:28:30.947Z,20.17
2023-03-04T06:31:17.383Z,20.17
2023-03-04T06:34:03.268Z,20.18
2023-03-04T06:36:48.468Z,20.21
2023-03-04T06:39:33.951Z,20.22
2023-03-04T06:42:19.501Z,20.27
2023-03-04T06:45:05.635Z,20.31
2023-03-04T06:47:50.931Z,20.34
2023-03-04T06:50:37.008Z,20.37
2023-03-04T06:53:22.527Z,20.37
2023-03-04T06:56:09.899Z,20.34
2023-03-04T06:58:55.400Z,20.33
2023-03-04T07:01:40.670Z,20.33
2023-03-04T07:04:26.239Z,20.32
2023-03-04T07:07:12.429Z,20.30
2023-03-04T07:09:57.808Z,20.31
2023-03-04T07:12:43.168Z,20.32
2023-03-04T07:15:28.886Z,20.33
2023-03-04T07:18:14.786Z,20.37
2023-03-04T07:21:01.372Z,20.45
2023-03-04T07:23:53.859Z,20.45
2023-03-04T07:26:40.149Z,20.45
2023-03-04T07:29:26.011Z,20.47
2023-03-04T07:32:11.732Z,20.48
2023-03-04T07:34:58.039Z,20.50
2023-03-04T07:37:45.205Z,20.55
2023-03-04T07:40:30.879Z,20.57
2023-03-04T07:43:16.734Z,20.61
2023-03-04T07:46:03.236Z,20.64
2023-03-04T07:48:49.277Z,20.70
2023-03-04T07:51:35.734Z,20.75
2023-03-04T07:54:21.250Z,20.79
2023-03-04T07:57:06.515Z,20.85
2023-03-04T07:59:51.782Z,20.89
2023-03-04T08:02:37.235Z,20.90
2023-03-04T08:05:22.517Z,20.94
2023-03-04T08:08:07.986Z,20.97
2023-03-04T08:10:53.183Z,21.02
2023-03-04T08:13:38.791Z,21.06
2023-03-04T08:16:25.003Z,21.08
2023-03-04T08:19:12.526Z,21.11
2023-03-04T08:21:58.124Z,21.17
2023-03-04T08:24:43.499Z,21.24
2023-03-04T08:27:28.894Z,21.27
2023-03-04T08:30:14.684Z,21.33
2023-03-04T08:33:02.891Z,21.34
2023-03-04T08:35:48.224Z,21.39
2023-03-04T08:38:33.414Z,21.42
2023-03-04T08:41:19.541Z,21.44
2023-03-04T08:44:09.865Z,21.44
2023-03-04T08:46:55.461Z,21.44
2023-03-04T08:49:41.044Z,21.47
2023-03-04T08:52:26.428Z,21.50
2023-03-04T08:55:12.055Z,21.51
2023-03-04T09:27:43.079Z,21.52
2023-03-04T09:30:29.252Z,21.52
2023-03-04T09:33:15.059Z,21.54
2023-03-04T09:36:00.504Z,21.55
2023-03-04T09:38:46.926Z,21.56
2023-03-04T09:41:45.573Z,21.59
2023-03-04T09:44:41.338Z,21.62
2023-03-04T09:47:27.151Z,21.66
2023-03-04T09:50:13.461Z,21.65
2023-03-04T09:52:58.766Z,21.64
2023-03-04T09:55:49.214Z,21.67
2023-03-04T09:58:59.854Z,21.68
2023-03-04T10:01:53.444Z,21.68
2023-03-04T10:04:41.798Z,21.68
2023-03-04T10:07:33.954Z,21.68
2023-03-04T10:10:39.816Z,21.69
2023-03-04T10:13:54.768Z,21.72
2023-03-04T10:16:44.385Z,21.73
2023-03-04T10:19:35.853Z,21.75
2023-03-04T10:22:46.704Z,21.73
2023-03-04T10:25:33.101Z,21.73
2023-03-04T10:28:25.197Z,21.74
2023-03-04T10:31:35.323Z,21.76
2023-03-04T10:34:20.828Z,21.77
2023-03-04T10:37:08.925Z,21.79
2023-03-04T10:39:54.509Z,21.79
2023-03-04T10:42:40.414Z,21.81
2023-03-04T10:45:30.850Z,21.81
2023-03-04T10:48:25.535Z,21.82
2023-03-04T10:51:15.330Z,21.84
2023-03-04T10:54:08.641Z,21.83
2023-03-04T10:57:01.312Z,21.86
2023-03-04T11:00:19.110Z,21.87
2023-03-04T11:03:29.882Z,21.90
2023-03-04T11:06:23.127Z,21.91
2023-03-04T11:09:22.637Z,21.90
2023-03-04T11:12:14.777Z,21.91
2023-03-04T11:15:00.207Z,21.90
2023-03-04T11:17:50.262Z,21.89
2023-03-04T11:20:48.569Z,21.92
2023-03-04T11:23:43.372Z,21.93
2023-03-04T11:26:34.978Z,21.94
2023-03-04T11:29:29.730Z,21.94
2023-03-04T11:32:42.009Z,21.98
2023-03-04T11:35:39.141Z,22.01
2023-03-04T11:38:39.649Z,22.01
2023-03-04T11:41:42.603Z,22.03
2023-03-04T11:44:29.449Z,22.04
2023-03-04T11:47:30.217Z,22.06
2023-03-04T11:50:35.047Z,22.03
2023-03-04T11:53:36.896Z,22.05
2023-03-04T11:56:45.426Z,22.06
2023-03-04T11:59:45.798Z,22.06
2023-03-04T12:02:59.683Z,22.05
2023-03-04T12:06:04.668Z,22.07
2023-03-04T12:09:02.532Z,22.08
2023-03-04T12:11:54.018Z,22.10
2023-03-04T12:14:49.072Z,22.11
2023-03-04T12:17:43.737Z,22.10
2023-03-04T12:20:45.049Z,22.13
2023-03-04T12:23:42.628Z,22.16
2023-03-04T12:26:49.645Z,22.18
2023-03-04T12:29:44.003Z,22.17
2023-03-04T12:33:03.180Z,22.18
2023-03-04T12:36:15.145Z,22.21
2023-03-04T12:39:23.957Z,22.24
2023-03-04T12:42:21.456Z,22.26
2023-03-04T12:45:25.501Z,22.25
2023-03-04T12:48:36.760Z,22.26
2023-03-04T12:51:27.217Z,22.27
2023-03-04T12:54:20.995Z,22.30
2023-03-04T12:57:13.617Z,22.32
2023-03-04T13:00:21.159Z,22.32
2023-03-04T13:03:10.660Z,22.32
2023-03-04T13:06:14.565Z,22.34
2023-03-04T13:09:18.186Z,22.32
2023-03-04T13:12:22.502Z,22.34
2023-03-04T13:15:08.148Z,22.37
2023-03-04T13:17:57.000Z,22.39
2023-03-04T13:20:42.888Z,22.39
2023-03-04T13:23:29.341Z,22.40
2023-03-04T13:26:29.967Z,22.44
2023-03-04T13:29:18.093Z,22.44
2023-03-04T13:32:11.184Z,22.44
2023-03-04T13:34:57.969Z,22.46
2023-03-04T13:37:58.938Z,22.46
2023-03-04T13:40:44.369Z,22.49
2023-03-04T13:43:44.874Z,22.47
2023-03-04T13:46:41.472Z,22.49
2023-03-04T13:49:27.428Z,22.48
2023-03-04T13:52:42.552Z,22.52
2023-03-04T13:55:40.422Z,22.51
2023-03-04T13:58:27.539Z,22.50
2023-03-04T14:01:31.928Z,22.49
2023-03-04T14:04:25.161Z,22.47
2023-03-04T14:07:37.134Z,22.47
2023-03-04T14:10:25.264Z,22.46
2023-03-04T14:13:11.881Z,22.45
2023-03-04T14:15:59.705Z,22.42
2023-03-04T14:18:45.372Z,22.44
2023-03-04T14:21:31.685Z,22.42
2023-03-04T14:24:19.511Z,22.42
2023-03-04T14:27:14.132Z,22.39
2023-03-04T14:30:01.593Z,22.40
2023-03-04T14:32:48.769Z,22.40
2023-03-04T14:35:36.133Z,22.37
2023-03-04T14:38:26.611Z,22.39
2023-03-04T14:41:27.404Z,22.38
2023-03-04T14:44:25.304Z,22.34
2023-03-04T14:47:20.563Z,22.33
2023-03-04T14:50:13.086Z,22.34
2023-03-04T14:53:07.470Z,22.31
2023-03-04T14:56:02.685Z,22.31
2023-03-04T14:58:54.608Z,22.28
2023-03-04T15:01:39.953Z,22.27
2023-03-04T15:04:25.208Z,22.24
2023-03-04T15:07:34.257Z,22.24
2023-03-04T15:10:27.582Z,22.17
2023-03-04T15:13:13.354Z,22.17
2023-03-04T15:16:02.356Z,22.15
2023-03-04T15:19:23.380Z,22.14
2023-03-04T15:22:09.489Z,22.13
2023-03-04T15:24:55.221Z,22.12
2023-03-04T15:27:41.716Z,22.11
2023-03-04T15:30:35.014Z,22.13
2023-03-04T15:33:21.413Z,22.14
2023-03-04T15:36:12.878Z,22.15
2023-03-04T15:38:59.338Z,22.17
2023-03-04T15:41:48.553Z,22.14
2023-03-04T15:44:34.522Z,22.14
2023-03-04T15:47:19.895Z,22.14
2023-03-04T15:50:05.700Z,22.15
2023-03-04T15:52:51.851Z,22.17
2023-03-04T15:55:37.443Z,22.17
2023-03-04T15:58:23.024Z,22.17
2023-03-04T16:01:15.012Z,22.18
2023-03-04T16:04:00.824Z,22.19
2023-03-04T16:06:48.489Z,22.18
2023-03-04T16:09:34.401Z,22.18
2023-03-04T16:12:19.870Z,22.17
2023-03-04T16:15:13.480Z,22.18
2023-03-04T16:18:00.027Z,22.17
2023-03-04T16:20:48.450Z,22.18
2023-03-04T16:23:41.256Z,22.18
2023-03-04T16:26:28.349Z,22.18
2023-03-04T16:29:14.238Z,22.16
2023-03-04T16:32:00.252Z,22.15
2023-03-04T16:34:48.142Z,22.16
2023-03-04T16:37:33.693Z,22.15
2023-03-04T16:40:28.302Z,22.18
2023-03-04T16:43:14.663Z,22.21
2023-03-04T16:46:01.085Z,22.19
2023-03-04T16:48:47.994Z,22.19
2023-03-04T16:51:52.693Z,22.20
2023-03-04T16:54:39.617Z,22.16
2023-03-04T16:57:28.429Z,22.16
2023-03-04T17:00:17.243Z,22.15
2023-03-04T17:03:04.007Z,22.15
2023-03-04T17:05:50.043Z,22.13
2023-03-04T17:08:35.577Z,22.14
2023-03-04T17:11:23.447Z,22.15
2023-03-04T17:14:08.986Z,22.15
2023-03-04T17:16:54.356Z,22.14
2023-03-04T17:19:39.827Z,22.14
2023-03-04T17:22:25.324Z,22.13
2023-03-04T17:25:17.082Z,22.12
2023-03-04T17:28:03.481Z,22.11
2023-03-04T17:30:49.149Z,22.11
2023-03-04T17:33:34.428Z,22.10
2023-03-04T17:36:21.829Z,22.11
2023-03-04T17:39:08.049Z,22.08
2023-03-04T17:41:53.577Z,22.07
2023-03-04T17:44:39.865Z,22.07
2023-03-04T17:47:26.212Z,22.07
2023-03-04T17:50:12.509Z,22.08
2023-03-04T17:52:57.907Z,22.07
2023-03-04T17:55:57.746Z,22.05
2023-03-04T17:58:44.214Z,22.05
2023-03-04T18:01:30.241Z,22.05
2023-03-04T18:04:16.880Z,22.06
2023-03-04T18:07:03.215Z,22.08
2023-03-04T18:09:49.179Z,22.07
2023-03-04T18:12:35.017Z,22.08
2023-03-04T18:15:20.461Z,22.08
2023-03-04T18:18:05.859Z,22.09
2023-03-04T18:20:58.610Z,22.10
2023-03-04T18:23:44.646Z,22.12
2023-03-04T18:26:30.468Z,22.12
2023-03-04T18:29:16.337Z,22.14
2023-03-04T18:32:01.998Z,22.14
2023-03-04T18:34:47.051Z,22.14
2023-03-04T18:37:32.368Z,22.17
2023-03-04T18:40:18.073Z,22.17
2023-03-04T18:43:04.612Z,22.19
2023-03-04T18:46:00.215Z,22.21
2023-03-04T18:48:50.178Z,22.22
2023-03-04T18:51:35.995Z,22.22
2023-03-04T18:54:21.771Z,22.23
2023-03-04T18:57:13.190Z,22.22
2023-03-04T19:00:01.483Z,22.23
2023-03-04T19:02:56.815Z,22.23
2023-03-04T19:05:43.015Z,22.23
2023-03-04T19:08:28.834Z,22.22
2023-03-04T19:11:14.728Z,22.23
2023-03-04T19:13:44.731Z,22.22
2023-03-04T19:16:30.252Z,22.23
2023-03-04T19:19:15.946Z,22.21
2023-03-04T19:22:01.373Z,22.20
2023-03-04T19:24:46.683Z,22.21
2023-03-04T19:27:32.259Z,22.23
2023-03-04T19:30:18.266Z,22.21
2023-03-04T19:33:03.978Z,22.20
2023-03-04T19:35:49.409Z,22.17
2023-03-04T19:38:35.517Z,22.19
2023-03-04T19:41:21.061Z,22.17
2023-03-04T19:44:06.364Z,22.17
2023-03-04T19:46:52.001Z,22.16
2023-03-04T19:49:37.859Z,22.17
2023-03-04T19:52:23.193Z,22.16
2023-03-04T19:55:38.811Z,22.15
2023-03-04T19:58:24.615Z,22.13
2023-03-04T20:01:30.621Z,22.09
2023-03-04T20:04:19.818Z,22.09
2023-03-04T20:07:05.290Z,22.07
2023-03-04T20:09:51.029Z,22.08
2023-03-04T20:12:37.141Z,22.08
2023-03-04T20:15:22.809Z,22.06
2023-03-04T20:18:08.189Z,22.04
2023-03-04T20:20:57.053Z,22.05
2023-03-04T20:23:42.577Z,22.04
2023-03-04T20:26:30.882Z,22.03
2023-03-04T20:29:16.798Z,22.00
2023-03-04T20:32:03.347Z,21.98
2023-03-04T20:34:54.005Z,22.00
2023-03-04T20:37:40.064Z,21.96
2023-03-04T20:40:26.613Z,21.95
2023-03-04T20:43:12.320Z,21.94
2023-03-04T20:46:28.357Z,21.94
2023-03-04T20:49:26.133Z,21.92
2023-03-04T20:52:11.828Z,21.93
2023-03-04T20:54:57.009Z,21.94
2023-03-04T20:57:42.330Z,21.94
2023-03-04T21:00:29.700Z,21.95
2023-03-04T21:03:15.792Z,21.93
2023-03-04T21:06:05.652Z,21.93
2023-03-04T21:08:51.742Z,21.95
2023-03-04T21:11:40.985Z,21.95
2023-03-04T21:14:31.979Z,21.91
2023-03-04T21:17:17.268Z,21.94
2023-03-04T21:20:02.929Z,21.92
2023-03-04T21:22:48.513Z,21.92
2023-03-04T21:25:33.899Z,21.90
2023-03-04T21:28:20.545Z,21.86
2023-03-04T21:31:06.365Z,21.81
2023-03-04T21:33:54.374Z,21.75
2023-03-04T21:36:40.047Z,21.74
2023-03-04T21:39:25.422Z,21.67
2023-03-04T21:42:11.407Z,21.66
2023-03-04T21:44:56.607Z,21.66
2023-03-04T21:47:41.815Z,21.67
2023-03-04T21:50:27.536Z,21.67
2023-03-04T21:53:13.147Z,21.64
2023-03-04T21:55:58.964Z,21.59
2023-03-04T21:58:46.090Z,21.56
2023-03-04T22:01:32.140Z,21.53
2023-03-04T22:04:17.864Z,21.50
2023-03-04T22:07:03.137Z,21.47
2023-03-04T22:09:48.697Z,21.45
2023-03-04T22:12:34.141Z,21.43
2023-03-04T22:15:19.825Z,21.41
2023-03-04T22:18:07.445Z,21.39
2023-03-04T22:21:02.700Z,21.38
2023-03-04T22:23:48.811Z,21.37
2023-03-04T22:26:35.146Z,21.36
2023-03-04T22:29:21.564Z,21.38
2023-03-04T22:32:07.279Z,21.37
2023-03-04T22:34:53.209Z,21.35
2023-03-04T22:37:38.906Z,21.36
2023-03-04T22:40:25.227Z,21.35
2023-03-04T22:43:11.098Z,21.35
2023-03-04T22:46:00.338Z,21.34
2023-03-04T22:48:45.823Z,21.32
2023-03-04T22:51:32.357Z,21.32
2023-03-04T22:54:18.544Z,21.30
2023-03-04T22:57:03.911Z,21.27
2023-03-04T22:59:50.118Z,21.26
2023-03-04T23:02:35.617Z,21.25
2023-03-04T23:05:21.606Z,21.24
2023-03-04T23:08:07.816Z,21.23
2023-03-04T23:10:53.576Z,21.22
2023-03-04T23:13:40.119Z,21.21
2023-03-04T23:16:28.158Z,21.18
2023-03-04T23:19:16.737Z,21.16
2023-03-04T23:22:02.589Z,21.15
2023-03-04T23:24:48.159Z,21.13
2023-03-04T23:27:33.792Z,21.13
2023-03-04T23:30:19.151Z,21.11
2023-03-04T23:33:05.023Z,21.12
2023-03-04T23:35:50.952Z,21.11
2023-03-04T23:38:36.382Z,21.12
2023-03-04T23:41:24.950Z,21.10
2023-03-04T23:44:12.058Z,21.12
2023-03-04T23:46:58.035Z,21.11
2023-03-04T23:49:43.708Z,21.10
2023-03-04T23:52:28.912Z,21.10
2023-03-04T23:55:19.702Z,21.12
2023-03-04T23:58:05.337Z,21.10
